M I D A S
Marine Information and Data Acquisition System
Tripno 1959 of the Zeeleeuw from 2010-09-10 06:21:14 to 2010-09-10 13:56:12
Back to CruiseResearch ActivitiesStationsMapUnderway DataData graphs

EquipmentUnitsComment
TimeDGPSUTC
LatitudeDGPSDM.mWGS84
LongitudeDGPSDM.mWGS84
TemperatureSBE03/SBE38deg celciusITS90
ConductivitySBE21S/mITS90
SalinitySBE21 Practical Salinity Units
ChlorophylAChelsea fluorimeterg/lCalibrated in Aceton
Missing or incorrect values are displayed as -999
Sea surface data collected by the RV Zeeleeuw from 2010-09-10 06:23:44 to 2010-09-10 14:10:37
Time Latitude Longitude Temperature Conductivity Salinity ChlorophylA
2010-09-10 06:24:49 51°13.665 2°55.946 20.6985 2.307545 15.886142 -0.7568
2010-09-10 06:25:52 51°13.686 2°55.869 20.7226 2.307966 15.890661 -0.7568
2010-09-10 06:26:53 51°13.695 2°55.763 20.7245 2.30786 15.890139 -0.7568
2010-09-10 06:27:51 51°13.701 2°55.742 20.7466 2.308071 15.892533 -0.7568
2010-09-10 06:28:51 51°13.706 2°55.754 20.7134 2.308176 15.893055 -0.791624
2010-09-10 06:29:52 51°13.732 2°55.74 20.7162 2.308807 15.898889 -0.7568
2010-09-10 06:30:50 51°13.806 2°55.656 20.6419 2.307334 15.886718 -0.7568
2010-09-10 06:31:49 51°13.9 2°55.577 20.689 2.30765 15.889635 -0.7568
2010-09-10 06:32:49 51°14.038 2°55.475 20.6477 2.306072 15.878023 -0.7568
2010-09-10 06:33:49 51°14.193 2°55.352 20.6737 2.306809 15.885189 -0.721976
2010-09-10 06:34:49 51°14.352 2°55.211 20.6306 2.306177 15.880165 -0.7568
2010-09-10 06:35:49 51°14.519 2°55.05 20.6869 2.307229 15.889168 -0.7568
2010-09-10 06:36:49 51°14.672 2°54.808 20.6796 2.305757 15.876727 -0.7568
2010-09-10 06:37:49 51°14.742 2°54.466 20.6555 2.307861 15.907448 -0.791624
2010-09-10 06:38:49 51°14.798 2°54.113 20.6505 2.307861 15.904199 -0.7568
2010-09-10 06:39:49 51°14.838 2°53.755 20.6472 2.307019 15.893259 -0.7568
2010-09-10 06:40:49 51°14.883 2°53.395 20.6479 2.309123 15.917505 -0.7568
2010-09-10 06:41:49 51°14.923 2°53.031 20.6293 2.31049 15.929442 -0.7568
2010-09-10 06:42:49 51°14.931 2°52.66 20.6445 2.30744 15.904547 -0.791624
2010-09-10 06:43:49 51°14.94 2°52.289 20.6488 2.307966 15.913659 -0.7568
2010-09-10 06:44:49 51°14.949 2°51.918 20.6217 2.309439 15.92612 -0.7568
2010-09-10 06:45:49 51°14.96 2°51.546 20.6442 2.30744 15.915113 -0.7568
2010-09-10 06:46:49 51°14.974 2°51.177 20.6578 2.307335 15.914049 -0.791624
2010-09-10 06:47:49 51°15.072 2°50.855 20.679 2.307335 15.920558 -0.7568
2010-09-10 06:48:49 51°15.208 2°50.567 20.696 2.308387 15.928768 -0.721976
2010-09-10 06:49:49 51°15.352 2°50.288 20.7372 2.306809 15.918489 -0.7568
2010-09-10 06:50:49 51°15.457 2°50.097 20.7826 2.306915 15.926342 -0.7568
2010-09-10 06:51:49 51°15.477 2°50.003 20.8071 2.307756 15.930522 -0.7568
2010-09-10 06:52:51 51°15.474 2°49.985 20.8448 2.306704 15.926383 -0.7568
2010-09-10 06:53:50 51°15.472 2°49.97 20.8847 2.305968 15.920824 -0.721976
2010-09-10 06:54:49 51°15.469 2°49.953 20.924 2.305232 15.916621 -0.721976
2010-09-10 06:55:49 51°15.465 2°49.936 20.9499 2.305547 15.923351 -0.721976
2010-09-10 06:56:49 51°15.462 2°49.918 20.9926 2.305337 15.923121 -0.7568
2010-09-10 06:57:49 51°15.459 2°49.9 21.0239 2.30439 15.916513 -0.721976
2010-09-10 06:58:49 51°15.455 2°49.883 21.0601 2.304811 15.922409 -0.7568
2010-09-10 06:59:49 51°15.452 2°49.866 21.1024 2.304496 15.919753 -0.7568
2010-09-10 07:00:49 51°15.456 2°49.844 21.1516 2.303864 15.916887 -0.791624
2010-09-10 07:01:49 51°15.468 2°49.734 21.1656 2.303654 15.915298 -0.7568
2010-09-10 07:02:49 51°15.405 2°49.573 21.2061 2.301024 15.892988 -0.791624
2010-09-10 07:03:49 51°15.309 2°49.39 21.248 2.303128 15.913497 -0.7568
2010-09-10 07:04:50 51°15.221 2°49.267 21.2851 2.304811 15.926488 -0.7568
2010-09-10 07:05:49 51°15.155 2°49.304 21.3287 2.304496 15.927367 -0.721976
2010-09-10 07:06:49 51°15.143 2°49.375 21.3475 2.303549 15.925924 -0.7568
2010-09-10 07:07:49 51°15.189 2°49.413 21.3752 2.302392 15.914728 -0.7568
2010-09-10 07:08:49 51°15.237 2°49.463 21.4091 2.302602 15.917407 -0.7568
2010-09-10 07:09:49 51°15.274 2°49.53 21.4408 2.303339 15.924334 -0.791624
2010-09-10 07:10:49 51°15.318 2°49.584 21.4736 2.301656 15.911337 -0.7568
2010-09-10 07:11:49 51°15.363 2°49.639 21.5026 2.302182 15.916946 -0.7568
2010-09-10 07:12:49 51°15.405 2°49.697 21.5364 2.301551 15.912446 -0.7568
2010-09-10 07:13:49 51°15.443 2°49.76 21.5652 2.301025 15.908741 -0.791624
2010-09-10 07:14:49 51°15.47 2°49.833 21.5975 2.301235 15.911147 -0.7568
2010-09-10 07:15:49 51°15.495 2°49.908 21.6261 2.301551 15.914077 -0.7568
2010-09-10 07:16:49 51°15.516 2°49.986 21.6549 2.301446 15.913826 -0.7568
2010-09-10 07:17:53 51°15.531 2°50.074 21.6886 2.300814 15.909326 -0.7568
2010-09-10 07:19:50 51°15.533 2°50.238 21.7521 2.301235 15.91414 -0.7568
2010-09-10 07:20:48 51°15.52 2°50.32 21.778 2.301656 15.917866 -0.721976
2010-09-10 07:21:47 51°15.5 2°50.392 21.8066 2.302287 15.924273 -0.7568
2010-09-10 07:22:47 51°15.462 2°50.444 21.8506 2.302182 15.92375 -0.791624
2010-09-10 07:23:47 51°15.411 2°50.471 21.87 2.303549 15.936274 -0.7568
2010-09-10 07:24:47 51°15.351 2°50.468 21.8976 2.306074 15.957832 -0.791624
2010-09-10 07:25:47 51°15.295 2°50.43 21.9193 2.30376 15.940319 -0.721976
2010-09-10 07:26:47 51°15.251 2°50.387 21.9455 2.306074 15.959743 -0.7568
2010-09-10 07:27:47 51°15.218 2°50.338 21.968 2.302392 15.926975 -0.7568
2010-09-10 07:28:47 51°15.189 2°50.265 21.9904 2.302287 15.929449 -0.7568
2010-09-10 07:29:47 51°15.16 2°50.148 22.0141 2.302498 15.928588 -0.791624
2010-09-10 07:30:47 51°15.084 2°49.934 22.0403 2.30113 15.915249 -0.7568
2010-09-10 07:31:47 51°15.013 2°49.788 22.0656 2.304391 15.945914 -0.7568
2010-09-10 07:32:47 51°14.979 2°49.691 22.0902 2.301866 15.9279 -0.721976
2010-09-10 07:33:47 51°14.943 2°49.614 22.1085 2.303234 15.939612 -0.791624
2010-09-10 07:34:47 51°14.886 2°49.634 22.1403 2.303865 15.951212 -0.7568
2010-09-10 07:35:47 51°14.898 2°49.777 22.1409 2.301656 15.929306 -0.791624
2010-09-10 07:36:48 51°14.883 2°49.996 22.1901 2.301761 15.930919 -0.791624
2010-09-10 07:37:47 51°14.854 2°50.237 22.2018 2.302813 15.939154 -0.7568
2010-09-10 07:38:48 51°14.824 2°50.511 22.2347 2.301656 15.932577 -0.791624
2010-09-10 07:39:47 51°14.806 2°50.779 22.2451 2.30113 15.927778 -0.791624
2010-09-10 07:40:48 51°14.796 2°51.054 22.2733 2.300815 15.926752 -0.7568
2010-09-10 07:41:47 51°14.754 2°51.263 22.2932 2.302498 15.944679 -0.791624
2010-09-10 07:42:47 51°14.716 2°51.431 22.3066 2.301446 15.934258 -0.7568
2010-09-10 07:43:47 51°14.745 2°51.508 22.3258 2.300079 15.922541 -0.7568
2010-09-10 07:44:47 51°14.777 2°51.51 22.3511 2.300394 15.929566 -0.7568
2010-09-10 07:45:47 51°14.774 2°51.493 22.3683 2.30092 15.934095 -0.7568
2010-09-10 07:46:48 51°14.769 2°51.478 22.3858 2.299658 15.920719 -0.791624
2010-09-10 07:47:47 51°14.76 2°51.463 22.4066 2.299868 15.923402 -0.7568
2010-09-10 07:48:47 51°14.751 2°51.451 22.4239 2.300184 15.9277 -0.7568
2010-09-10 07:49:47 51°14.741 2°51.442 22.4391 2.300079 15.926631 -0.7568
2010-09-10 07:50:47 51°14.728 2°51.431 22.458 2.30071 15.93332 -0.7568
2010-09-10 07:51:47 51°14.715 2°51.42 22.476 2.299658 15.925354 -0.7568
2010-09-10 07:52:47 51°14.701 2°51.407 22.489 2.299342 15.922691 -0.7568
2010-09-10 07:53:47 51°14.712 2°51.373 22.5106 2.299868 15.925311 -0.7568
2010-09-10 07:54:47 51°14.697 2°51.247 22.519 2.298501 15.913048 -0.7568
2010-09-10 07:55:47 51°14.597 2°51.122 22.5373 2.296923 15.901648 -0.721976
2010-09-10 07:56:47 51°14.487 2°51.033 22.5674 2.299447 15.919398 -0.721976
2010-09-10 07:57:47 51°14.459 2°50.901 22.5953 2.299763 15.930516 -0.791624
2010-09-10 07:58:47 51°14.504 2°50.834 22.5964 2.299237 15.922713 -0.7568
2010-09-10 07:59:47 51°14.546 2°50.865 22.6103 2.299448 15.926488 -0.721976
2010-09-10 08:00:47 51°14.583 2°50.93 22.6299 2.298711 15.919275 -0.7568
2010-09-10 08:01:47 51°14.625 2°50.994 22.6418 2.298606 15.920387 -0.7568
2010-09-10 08:02:47 51°14.663 2°51.057 22.6538 2.298291 15.918543 -0.7568
2010-09-10 08:03:47 51°14.691 2°51.123 22.6743 2.298396 15.919339 -0.721976
2010-09-10 08:04:47 51°14.716 2°51.191 22.6897 2.29808 15.916404 -0.7568
2010-09-10 08:05:47 51°14.736 2°51.261 22.6996 2.298185 15.917746 -0.7568
2010-09-10 08:06:47 51°14.753 2°51.328 22.7191 2.298606 15.922297 -0.721976
2010-09-10 08:07:47 51°14.772 2°51.399 22.7299 2.29808 15.91804 -0.791624
2010-09-10 08:08:46 51°14.79 2°51.47 22.7364 2.29787 15.915628 -0.791624
2010-09-10 08:09:47 51°14.811 2°51.546 22.7573 2.297765 15.914832 -0.7568
2010-09-10 08:10:46 51°14.829 2°51.617 22.772 2.29787 15.915356 -0.721976
2010-09-10 08:11:47 51°14.848 2°51.687 22.7861 2.299132 15.925189 -0.7568
2010-09-10 08:12:46 51°14.864 2°51.754 22.7916 2.29766 15.91349 -0.721976
2010-09-10 08:13:46 51°14.878 2°51.824 22.8096 2.299027 15.923847 -0.7568
2010-09-10 08:14:47 51°14.873 2°51.903 22.8211 2.298396 15.919885 -0.7568
2010-09-10 08:15:47 51°14.845 2°51.969 22.8228 2.298396 15.918521 -0.7568
2010-09-10 08:16:47 51°14.793 2°52.002 22.8369 2.299132 15.925462 -0.791624
2010-09-10 08:17:46 51°14.733 2°51.992 22.8586 2.299868 15.928311 -0.791624
2010-09-10 08:18:47 51°14.68 2°51.933 22.8676 2.300605 15.938256 -0.7568
2010-09-10 08:19:47 51°14.65 2°51.877 22.8721 2.299237 15.923258 -0.7568
2010-09-10 08:20:47 51°14.627 2°51.809 22.8965 2.298922 15.921414 -0.7568
2010-09-10 08:21:47 51°14.595 2°51.597 22.9001 2.297239 15.906488 -0.7568
2010-09-10 08:22:47 51°14.582 2°51.317 22.9065 2.296713 15.903323 -0.7568
2010-09-10 08:23:47 51°14.591 2°51.12 22.9157 2.297344 15.908919 -0.7568
2010-09-10 08:24:47 51°14.615 2°51.017 22.9258 2.29808 15.914495 -0.7568
2010-09-10 08:25:47 51°14.633 2°50.95 22.94 2.298606 15.921206 -0.721976
2010-09-10 08:26:47 51°14.641 2°50.896 22.9601 2.297554 15.91133 -0.791624
2010-09-10 08:27:47 51°14.641 2°50.847 22.9579 2.300394 15.925203 -0.7568
2010-09-10 08:28:46 51°14.636 2°50.805 22.9658 2.298817 15.922253 -0.791624
2010-09-10 08:29:47 51°14.63 2°50.766 22.9864 2.298396 15.921249 -0.7568
2010-09-10 08:30:46 51°14.624 2°50.685 22.9897 2.298817 15.927984 -0.7568
2010-09-10 08:31:47 51°14.549 2°50.61 23.0138 2.298291 15.920997 -0.721976
2010-09-10 08:32:47 51°14.504 2°50.728 23.0106 2.298291 15.923726 -0.7568
2010-09-10 08:33:47 51°14.531 2°50.962 23.037 2.296923 15.913093 -0.7568
2010-09-10 08:34:47 51°14.558 2°51.247 23.0499 2.297449 15.919533 -0.791624
2010-09-10 08:35:47 51°14.58 2°51.546 23.0585 2.297765 15.92247 -0.7568
2010-09-10 08:36:47 51°14.607 2°51.856 23.0597 2.300079 15.942467 -0.7568
2010-09-10 08:37:47 51°14.633 2°52.167 23.0714 2.298712 15.929644 -0.7568
2010-09-10 08:38:47 51°14.657 2°52.469 23.0861 2.300815 15.951057 -0.7568
2010-09-10 08:39:47 51°14.676 2°52.706 23.1081 2.299869 15.943333 -0.7568
2010-09-10 08:40:47 51°14.71 2°52.914 23.1052 2.301131 15.953176 -0.7568
2010-09-10 08:41:47 51°14.757 2°53.11 23.1085 2.298606 15.931851 -0.7568
2010-09-10 08:42:47 51°14.815 2°53.209 23.127 2.299132 15.936657 -0.7568
2010-09-10 08:43:47 51°14.855 2°53.189 23.14 2.298712 15.934561 -0.7568
2010-09-10 08:44:47 51°14.851 2°53.169 23.1488 2.298396 15.932442 -0.7568
2010-09-10 08:45:47 51°14.843 2°53.15 23.1564 2.297975 15.92734 -0.7568
2010-09-10 08:46:47 51°14.835 2°53.133 23.1679 2.29787 15.927089 -0.7568
2010-09-10 08:47:47 51°14.826 2°53.119 23.1765 2.298501 15.932693 -0.791624
2010-09-10 08:48:47 51°14.816 2°53.105 23.1891 2.299132 15.937751 -0.791624
2010-09-10 08:49:47 51°14.804 2°53.09 23.2013 2.299132 15.937204 -0.791624
2010-09-10 08:50:47 51°14.793 2°53.076 23.2099 2.299238 15.939641 -0.7568
2010-09-10 08:51:47 51°14.783 2°53.062 23.2207 2.29787 15.929001 -0.7568
2010-09-10 08:52:46 51°14.772 2°53.047 23.2292 2.298606 15.93595 -0.7568
2010-09-10 08:53:47 51°14.761 2°53.032 23.2361 2.29787 15.927909 -0.7568
2010-09-10 08:54:46 51°14.773 2°53.006 23.2373 2.297029 15.924261 -0.791624
2010-09-10 08:55:47 51°14.884 2°52.942 23.2503 2.296398 15.915109 -0.7568
2010-09-10 08:56:47 51°15.063 2°52.871 23.2607 2.297975 15.924337 -0.791624
2010-09-10 08:57:46 51°15.257 2°52.787 23.2793 2.297134 15.920416 -0.7568
2010-09-10 08:58:47 51°15.458 2°52.689 23.2842 2.299658 15.942285 -0.7568
2010-09-10 08:59:47 51°15.659 2°52.637 23.285 2.299448 15.945612 -0.7568
2010-09-10 09:00:47 51°15.856 2°52.551 23.2912 2.297765 15.924108 -0.7568
2010-09-10 09:01:47 51°16.052 2°52.443 23.3055 2.297239 15.920668 -0.791624
2010-09-10 09:02:47 51°16.249 2°52.336 23.3153 2.295556 15.911187 -0.791624
2010-09-10 09:03:47 51°16.443 2°52.232 23.3298 2.296608 15.917522 -0.7568
2010-09-10 09:04:47 51°16.636 2°52.137 23.3352 2.297134 15.920143 -0.791624
2010-09-10 09:05:47 51°16.832 2°52.136 23.3436 2.299238 15.94347 -0.7568
2010-09-10 09:06:47 51°17.026 2°52.164 23.3446 2.299658 15.939278 -0.721976
2010-09-10 09:07:47 51°17.22 2°52.186 23.3618 2.296292 15.91513 -0.7568
2010-09-10 09:08:47 51°17.415 2°52.217 23.3855 2.298186 15.933033 -0.7568
2010-09-10 09:09:46 51°17.602 2°52.269 23.3878 2.29766 15.928226 -0.7568
2010-09-10 09:10:47 51°17.789 2°52.349 23.3898 2.298501 15.935972 -0.7568
2010-09-10 09:11:47 51°17.965 2°52.465 23.4012 2.298607 15.93841 -0.7568
2010-09-10 09:12:46 51°18.13 2°52.596 23.382 2.300921 15.955138 -0.7568
2010-09-10 09:13:46 51°18.304 2°52.719 23.417 2.298291 15.939572 -0.7568
2010-09-10 09:14:46 51°18.472 2°52.852 23.4269 2.298186 15.931394 -0.7568
2010-09-10 09:15:46 51°18.6 2°53.068 23.419 2.317224 16.079385 -0.7568
2010-09-10 09:16:46 51°18.707 2°53.31 23.4273 2.311124 16.04079 -0.7568
2010-09-10 09:17:47 51°18.822 2°53.551 23.4659 2.303866 15.985428 -0.7568
2010-09-10 09:18:46 51°18.93 2°53.781 23.4536 2.308915 16.021822 -0.791624
2010-09-10 09:19:46 51°19.046 2°54.012 23.4549 2.311018 16.038615 -0.721976
2010-09-10 09:20:46 51°19.192 2°54.118 23.4741 2.30639 16.008158 -0.7568
2010-09-10 09:21:46 51°19.293 2°54.108 23.4841 2.308494 16.021103 -0.791624
2010-09-10 09:22:46 51°19.327 2°54.077 23.4982 2.305654 16.003118 -0.791624
2010-09-10 09:23:46 51°19.323 2°54.044 23.507 2.304918 15.995332 -0.791624
2010-09-10 09:24:46 51°19.317 2°54.006 23.5105 2.30639 16.006509 -0.7568
2010-09-10 09:25:46 51°19.306 2°53.982 23.5289 2.307021 16.011025 -0.7568
2010-09-10 09:26:46 51°19.294 2°53.958 23.528 2.303761 15.98655 -0.7568
2010-09-10 09:27:46 51°19.281 2°53.936 23.5385 2.304287 15.991365 -0.791624
2010-09-10 09:28:47 51°19.268 2°53.912 23.5483 2.303235 15.980913 -0.7568
2010-09-10 09:29:46 51°19.256 2°53.889 23.549 2.306285 16.00626 -0.7568
2010-09-10 09:30:46 51°19.243 2°53.864 23.5583 2.304707 15.994833 -0.7568
2010-09-10 09:31:46 51°19.231 2°53.839 23.5681 2.303445 15.984155 -0.721976
2010-09-10 09:32:46 51°19.219 2°53.815 23.5825 2.303761 15.985452 -0.7568
2010-09-10 09:33:46 51°19.207 2°53.79 23.5889 2.301552 15.968142 -0.7568
2010-09-10 09:34:46 51°19.194 2°53.767 23.5961 2.302814 15.975252 -0.7568
2010-09-10 09:35:46 51°19.181 2°53.743 23.5991 2.304181 15.989194 -0.7568
2010-09-10 09:36:46 51°19.168 2°53.72 23.6043 2.304392 15.99134 -0.7568
2010-09-10 09:37:47 51°19.156 2°53.697 23.6116 2.303971 15.98897 -0.7568
2010-09-10 09:38:46 51°19.144 2°53.673 23.6208 2.299869 15.955373 -0.7568
2010-09-10 09:39:46 51°19.133 2°53.648 23.6215 2.306075 16.004114 -0.7568
2010-09-10 09:40:46 51°19.122 2°53.623 23.6303 2.305128 15.996105 -0.7568
2010-09-10 09:41:46 51°19.111 2°53.597 23.6369 2.301447 15.968989 -0.7568
2010-09-10 09:42:46 51°19.1 2°53.572 23.6466 2.304602 15.995408 -0.7568
2010-09-10 09:43:46 51°19.088 2°53.547 23.6475 2.304392 15.991889 -0.791624
2010-09-10 09:44:46 51°19.075 2°53.523 23.655 2.302183 15.97485 -0.791624
2010-09-10 09:45:46 51°19.062 2°53.498 23.656 2.30071 15.962031 -0.7568
2010-09-10 09:46:46 51°19.049 2°53.473 23.6689 2.3005 15.959887 -0.7568
2010-09-10 09:47:46 51°19.035 2°53.449 23.6766 2.303866 15.988721 -0.791624
2010-09-10 09:48:46 51°19.021 2°53.425 23.6776 2.30313 15.982309 -0.7568
2010-09-10 09:49:46 51°19.007 2°53.4 23.683 2.301657 15.971682 -0.791624
2010-09-10 09:50:46 51°18.993 2°53.376 23.6924 2.302604 15.980238 -0.791624
2010-09-10 09:51:46 51°18.98 2°53.359 23.7008 2.305864 16.002517 -0.791624
2010-09-10 09:52:47 51°18.961 2°53.334 23.6962 2.302183 15.975673 -0.7568
2010-09-10 09:53:47 51°18.949 2°53.311 23.7102 2.304813 15.995906 -0.7568
2010-09-10 09:54:47 51°18.936 2°53.288 23.7138 2.303866 15.985702 -0.791624
2010-09-10 09:55:47 51°18.951 2°53.249 23.7066 2.298186 15.941236 -0.7568
2010-09-10 09:56:47 51°18.982 2°53.309 23.7529 2.301341 15.969013 -0.721976
2010-09-10 09:57:47 51°18.965 2°53.499 23.7237 2.296818 15.927583 -0.7568
2010-09-10 09:58:47 51°18.953 2°53.758 23.7275 2.301131 15.96221 -0.791624
2010-09-10 09:59:47 51°18.936 2°54.028 23.7174 2.303024 15.981511 -0.7568
2010-09-10 10:00:47 51°18.932 2°54.294 23.7314 2.300815 15.961459 -0.791624
2010-09-10 10:01:47 51°18.939 2°54.501 23.7511 2.302288 15.977843 -0.7568
2010-09-10 10:02:47 51°18.994 2°54.508 23.7343 2.299343 15.948919 -0.7568
2010-09-10 10:03:47 51°19.029 2°54.431 23.746 2.299027 15.947893 -0.791624
2010-09-10 10:04:47 51°19.04 2°54.331 23.7462 2.29766 15.936973 -0.791624
2010-09-10 10:05:47 51°19.053 2°54.229 23.7516 2.298501 15.944177 -0.7568
2010-09-10 10:06:47 51°19.063 2°54.127 23.7479 2.298081 15.93907 -0.7568
2010-09-10 10:07:47 51°19.074 2°54.026 23.7622 2.298712 15.945226 -0.7568
2010-09-10 10:08:47 51°19.08 2°53.921 23.7627 2.300079 15.955052 -0.7568
2010-09-10 10:09:47 51°19.086 2°53.814 23.7681 2.29787 15.93939 -0.7568
2010-09-10 10:10:47 51°19.092 2°53.706 23.7762 2.301447 15.964878 -0.7568
2010-09-10 10:11:47 51°19.098 2°53.597 23.7739 2.298081 15.940438 -0.791624
2010-09-10 10:12:47 51°19.103 2°53.486 23.7829 2.297555 15.933714 -0.7568
2010-09-10 10:13:47 51°19.108 2°53.374 23.7829 2.298396 15.940917 -0.7568
2010-09-10 10:14:47 51°19.121 2°53.266 23.7902 2.299553 15.950788 -0.7568
2010-09-10 10:15:47 51°19.146 2°53.172 23.7931 2.295241 15.915892 -0.721976
2010-09-10 10:16:47 51°19.189 2°53.182 23.8104 2.304181 15.993587 -0.791624
2010-09-10 10:17:47 51°19.21 2°53.249 23.802 2.303761 15.985727 -0.7568
2010-09-10 10:18:47 51°19.225 2°53.333 23.8113 2.303445 15.984155 -0.7568
2010-09-10 10:19:47 51°19.238 2°53.446 23.8095 2.304076 15.986201 -0.7568
2010-09-10 10:20:47 51°19.257 2°53.581 23.8144 2.301341 15.963532 -0.7568
2010-09-10 10:21:47 51°19.286 2°53.783 23.8211 2.304076 15.983183 -0.791624
2010-09-10 10:22:47 51°19.33 2°54.065 23.8304 2.29787 15.932827 -0.7568
2010-09-10 10:23:47 51°19.375 2°54.361 23.8376 2.303129 15.976001 -0.7568
2010-09-10 10:24:47 51°19.415 2°54.658 23.8427 2.304707 15.987972 -0.7568
2010-09-10 10:25:47 51°19.45 2°54.959 23.8467 2.303866 15.978023 -0.7568
2010-09-10 10:26:47 51°19.494 2°55.262 23.8426 2.302498 15.969843 -0.721976
2010-09-10 10:27:47 51°19.542 2°55.56 23.8499 2.303445 15.975106 -0.7568
2010-09-10 10:28:47 51°19.588 2°55.857 23.8554 2.307757 16.008645 -0.791624
2010-09-10 10:29:47 51°19.633 2°56.154 23.8417 2.306811 16.002561 -0.791624
2010-09-10 10:30:47 51°19.679 2°56.457 23.8513 2.302393 15.967676 -0.791624
2010-09-10 10:31:47 51°19.725 2°56.763 23.8409 2.304286 15.981763 -0.7568
2010-09-10 10:32:47 51°19.771 2°57.068 23.8565 2.304602 15.984979 -0.7568
2010-09-10 10:33:47 51°19.815 2°57.372 23.8696 2.303024 15.971367 -0.7568
2010-09-10 10:34:47 51°19.861 2°57.674 23.8562 2.302603 15.968175 -0.791624
2010-09-10 10:35:47 51°19.907 2°57.977 23.8554 2.304917 15.984631 -0.7568
2010-09-10 10:36:47 51°19.953 2°58.284 23.8661 2.30902 16.017397 -0.791624
2010-09-10 10:37:47 51°20 2°58.595 23.8542 2.305338 15.988919 -0.7568
2010-09-10 10:38:47 51°20.048 2°58.903 23.8832 2.301341 15.955045 -0.7568
2010-09-10 10:39:47 51°20.095 2°59.212 23.8725 2.308494 16.014231 -0.7568
2010-09-10 10:40:47 51°20.147 2°59.523 23.8926 2.30355 15.974534 -0.791624
2010-09-10 10:41:47 51°20.197 2°59.834 23.8846 2.302498 15.96327 -0.791624
2010-09-10 10:42:47 51°20.247 3°0.142 23.8866 2.302393 15.962473 -0.7568
2010-09-10 10:43:47 51°20.297 3°0.453 23.8832 2.302919 15.966461 -0.7568
2010-09-10 10:44:47 51°20.347 3°0.769 23.8847 2.303971 15.974437 -0.791624
2010-09-10 10:45:47 51°20.4 3°1.081 23.8935 2.305443 15.987797 -0.7568
2010-09-10 10:46:47 51°20.456 3°1.397 23.9001 2.306495 15.994952 -0.7568
2010-09-10 10:47:47 51°20.508 3°1.714 23.9059 2.304181 15.975484 -0.7568
2010-09-10 10:48:47 51°20.563 3°2.034 23.9002 2.306495 15.993307 -0.791624
2010-09-10 10:49:47 51°20.616 3°2.348 23.8997 2.307126 15.99727 -0.7568
2010-09-10 10:50:47 51°20.67 3°2.659 23.9069 2.307547 15.998541 -0.7568
2010-09-10 10:51:47 51°20.721 3°2.975 23.9168 2.308494 16.004896 -0.7568
2010-09-10 10:52:47 51°20.771 3°3.293 23.9262 2.304181 15.972745 -0.791624
2010-09-10 10:53:47 51°20.823 3°3.611 23.9195 2.306916 15.994029 -0.7568
2010-09-10 10:54:47 51°20.877 3°3.93 23.9373 2.301131 15.949347 -0.7568
2010-09-10 10:55:47 51°20.929 3°4.253 23.9364 2.304497 15.974316 -0.791624
2010-09-10 10:56:47 51°20.984 3°4.573 23.937 2.304286 15.972721 -0.7568
2010-09-10 10:57:47 51°21.036 3°4.889 23.945 2.30334 15.966913 -0.721976
2010-09-10 10:58:47 51°21.089 3°5.206 23.9515 2.300289 15.942968 -0.7568
2010-09-10 10:59:47 51°21.139 3°5.527 23.946 2.305443 15.980397 -0.7568
2010-09-10 11:00:47 51°21.193 3°5.842 23.9586 2.305443 15.980945 -0.7568
2010-09-10 11:01:47 51°21.248 3°6.159 23.9566 2.303234 15.963652 -0.791624
2010-09-10 11:02:47 51°21.294 3°6.447 23.9568 2.306495 15.987823 -0.7568
2010-09-10 11:03:47 51°21.317 3°6.62 23.9669 2.306705 15.989967 -0.791624
2010-09-10 11:04:47 51°21.365 3°6.689 23.9687 2.301657 15.950599 -0.791624
2010-09-10 11:05:47 51°21.421 3°6.714 23.9839 2.305864 15.983039 -0.7568
2010-09-10 11:06:47 51°21.434 3°6.717 23.9869 2.305338 15.97823 -0.7568
2010-09-10 11:07:46 51°21.433 3°6.715 23.9942 2.304707 15.973446 -0.791624
2010-09-10 11:08:47 51°21.428 3°6.713 24.0016 2.305759 15.980324 -0.791624
2010-09-10 11:09:47 51°21.426 3°6.716 24.0084 2.304181 15.966997 -0.791624
2010-09-10 11:10:47 51°21.419 3°6.722 24.0143 2.305654 15.980348 -0.7568
2010-09-10 11:11:47 51°21.417 3°6.731 24.0205 2.305022 15.972827 -0.7568
2010-09-10 11:12:47 51°21.41 3°6.74 24.0313 2.305548 15.976813 -0.791624
2010-09-10 11:13:47 51°21.402 3°6.749 24.0365 2.305022 15.972006 -0.791624
2010-09-10 11:14:47 51°21.394 3°6.758 24.0432 2.305653 15.975967 -0.791624
2010-09-10 11:15:47 51°21.387 3°6.766 24.0503 2.305128 15.971982 -0.721976
2010-09-10 11:16:47 51°21.381 3°6.774 24.054 2.305864 15.97674 -0.791624
2010-09-10 11:17:47 51°21.373 3°6.783 24.0629 2.304602 15.967175 -0.7568
2010-09-10 11:18:47 51°21.368 3°6.792 24.0717 2.305128 15.971982 -0.791624
2010-09-10 11:19:47 51°21.379 3°6.781 24.0745 2.305128 15.971982 -0.7568
2010-09-10 11:20:47 51°21.378 3°6.712 24.0805 2.307967 15.991861 -0.791624
2010-09-10 11:21:47 51°21.312 3°6.672 24.0853 2.303865 15.959135 -0.7568
2010-09-10 11:22:47 51°21.199 3°6.645 24.093 2.310387 16.014038 -0.7568
2010-09-10 11:23:47 51°21.087 3°6.547 24.0985 2.307547 15.988125 -0.7568
2010-09-10 11:24:47 51°20.977 3°6.428 24.105 2.308599 16.002402 -0.7568
2010-09-10 11:25:47 51°20.866 3°6.309 24.1126 2.308809 16.005643 -0.7568
2010-09-10 11:26:47 51°20.74 3°6.247 24.1205 2.30923 16.00801 -0.7568
2010-09-10 11:27:47 51°20.612 3°6.198 24.1203 2.30639 15.986204 -0.791624
2010-09-10 11:28:47 51°20.55 3°6.115 24.1306 2.30923 16.01048 -0.826448
2010-09-10 11:29:47 51°20.554 3°6.032 24.1277 2.308283 16.000009 -0.791624
2010-09-10 11:30:47 51°20.579 3°5.941 24.1283 2.304707 15.970435 -0.791624
2010-09-10 11:31:47 51°20.589 3°5.901 24.1283 2.305338 15.97823 -0.791624
2010-09-10 11:32:47 51°20.595 3°5.901 24.1363 2.305969 15.981919 -0.7568
2010-09-10 11:33:47 51°20.598 3°5.907 24.1402 2.305759 15.98005 -0.791624
2010-09-10 11:34:47 51°20.602 3°5.914 24.1514 2.30355 15.962214 -0.7568
2010-09-10 11:35:47 51°20.603 3°5.926 24.1529 2.304391 15.971328 -0.721976
2010-09-10 11:36:47 51°20.604 3°5.941 24.1591 2.305864 15.981669 -0.7568
2010-09-10 11:37:47 51°20.604 3°5.959 24.1619 2.303129 15.958751 -0.7568
2010-09-10 11:38:47 51°20.603 3°5.979 24.1684 2.305233 15.975516 -0.791624
2010-09-10 11:39:47 51°20.626 3°5.981 24.1708 2.304076 15.968389 -0.7568
2010-09-10 11:40:47 51°20.726 3°5.917 24.1631 2.301236 15.943311 -0.7568
2010-09-10 11:41:47 51°20.814 3°5.963 24.1762 2.304181 15.972197 -0.791624
2010-09-10 11:42:47 51°20.816 3°6.086 24.1698 2.304917 15.971756 -0.791624
2010-09-10 11:43:47 51°20.751 3°6.192 24.1845 2.306495 15.993581 -0.7568
2010-09-10 11:44:47 51°20.719 3°6.288 24.1842 2.3066 15.993556 -0.7568
2010-09-10 11:45:47 51°20.692 3°6.368 24.1836 2.306916 15.989369 -0.7568
2010-09-10 11:46:47 51°20.668 3°6.44 24.187 2.306811 15.98912 -0.791624
2010-09-10 11:47:47 51°20.647 3°6.509 24.185 2.306811 15.988297 -0.791624
2010-09-10 11:48:47 51°20.631 3°6.58 24.1927 2.307231 15.987925 -0.791624
2010-09-10 11:49:47 51°20.613 3°6.65 24.1906 2.305759 15.982515 -0.7568
2010-09-10 11:50:47 51°20.597 3°6.721 24.1967 2.307652 15.996047 -0.791624
2010-09-10 11:51:47 51°20.579 3°6.798 24.1968 2.308388 16.00163 -0.7568
2010-09-10 11:52:47 51°20.558 3°6.885 24.2065 2.305759 15.98005 -0.791624
2010-09-10 11:53:47 51°20.536 3°6.975 24.202 2.309756 16.010351 -0.791624
2010-09-10 11:54:46 51°20.515 3°7.064 24.2043 2.305969 15.977537 -0.791624
2010-09-10 11:55:47 51°20.496 3°7.156 24.2034 2.308809 16.003174 -0.7568
2010-09-10 11:56:47 51°20.478 3°7.244 24.21 2.308283 15.998638 -0.7568
2010-09-10 11:57:47 51°20.461 3°7.326 24.208 2.306705 15.98613 -0.791624
2010-09-10 11:58:47 51°20.441 3°7.4 24.2147 2.308704 16.001279 -0.7568
2010-09-10 11:59:47 51°20.423 3°7.459 24.2194 2.308494 16.001604 -0.791624
2010-09-10 12:00:47 51°20.412 3°7.509 24.2254 2.307442 15.990341 -0.7568
2010-09-10 12:01:47 51°20.408 3°7.554 24.2299 2.308494 16.000233 -0.7568
2010-09-10 12:02:47 51°20.396 3°7.645 24.2218 2.304917 15.966011 -0.791624
2010-09-10 12:03:47 51°20.343 3°7.819 24.2303 2.307336 15.987352 -0.7568
2010-09-10 12:04:47 51°20.269 3°7.995 24.2301 2.3066 15.981499 -0.791624
2010-09-10 12:05:46 51°20.201 3°8.16 24.2394 2.307021 15.985235 -0.791624
2010-09-10 12:06:46 51°20.148 3°8.295 24.2375 2.307547 15.988399 -0.791624
2010-09-10 12:07:47 51°20.099 3°8.391 24.2405 2.306705 15.981474 -0.7568
2010-09-10 12:08:46 51°20.056 3°8.385 24.237 2.312806 16.03293 -0.7568
2010-09-10 12:09:47 51°20.057 3°8.357 24.2393 2.308809 16.00098 -0.791624
2010-09-10 12:10:46 51°20.071 3°8.382 24.2437 2.308493 15.996121 -0.791624
2010-09-10 12:11:47 51°20.087 3°8.418 24.243 2.305338 15.970292 -0.7568
2010-09-10 12:12:46 51°20.103 3°8.458 24.2438 2.307126 15.983567 -0.791624
2010-09-10 12:13:46 51°20.119 3°8.5 24.2488 2.305864 15.974004 -0.791624
2010-09-10 12:14:46 51°20.134 3°8.544 24.253 2.307231 15.982996 -0.791624
2010-09-10 12:15:47 51°20.151 3°8.588 24.2521 2.307231 15.984364 -0.7568
2010-09-10 12:16:47 51°20.169 3°8.632 24.2563 2.30639 15.975526 -0.791624
2010-09-10 12:17:46 51°20.189 3°8.676 24.2625 2.304707 15.960316 -0.791624
2010-09-10 12:18:46 51°20.21 3°8.719 24.2632 2.306495 15.974955 -0.7568
2010-09-10 12:19:46 51°20.259 3°8.728 24.2675 2.306705 15.976001 -0.791624
2010-09-10 12:20:47 51°20.376 3°8.666 24.2736 2.304812 15.962206 -0.7568
2010-09-10 12:21:46 51°20.421 3°8.554 24.2636 2.305022 15.961886 -0.791624
2010-09-10 12:22:47 51°20.392 3°8.532 24.2716 2.304496 15.955718 -0.7568
2010-09-10 12:23:46 51°20.341 3°8.516 24.2767 2.306705 15.972719 -0.791624
2010-09-10 12:24:46 51°20.3 3°8.481 24.2835 2.304391 15.957926 -0.791624
2010-09-10 12:25:47 51°20.258 3°8.445 24.2835 2.309966 15.993583 -0.721976
2010-09-10 12:26:46 51°20.218 3°8.412 24.2832 2.309756 16.000479 -0.791624
2010-09-10 12:27:47 51°20.178 3°8.379 24.2817 2.309019 15.981491 -0.7568
2010-09-10 12:28:46 51°20.137 3°8.352 24.2886 2.308809 16.00098 -0.791624
2010-09-10 12:29:47 51°20.096 3°8.325 24.2878 2.308599 16.001305 -0.791624
2010-09-10 12:30:46 51°20.057 3°8.3 24.2885 2.305653 15.971862 -0.7568
2010-09-10 12:31:46 51°20.016 3°8.277 24.2878 2.306074 15.98299 -0.7568
2010-09-10 12:32:46 51°19.977 3°8.251 24.2841 2.310387 16.021177 -0.7568
2010-09-10 12:33:46 51°19.938 3°8.228 24.2941 2.309545 16.013147 -0.7568
2010-09-10 12:34:47 51°19.895 3°8.21 24.3001 2.308599 16.005694 -0.7568
2010-09-10 12:35:46 51°19.852 3°8.194 24.2993 2.308494 16.003799 -0.791624
2010-09-10 12:36:47 51°19.823 3°8.159 24.3016 2.307021 15.992359 -0.7568
2010-09-10 12:37:46 51°19.809 3°8.113 24.2968 2.307757 15.999313 -0.791624
2010-09-10 12:38:47 51°19.817 3°8.062 24.3094 2.306495 15.980428 -0.791624
2010-09-10 12:39:46 51°19.846 3°8.016 24.312 2.306179 15.979405 -0.7568
2010-09-10 12:40:47 51°19.886 3°7.991 24.3117 2.305969 15.981645 -0.791624
2010-09-10 12:41:46 51°19.915 3°7.996 24.3173 2.30639 15.980178 -0.7568
2010-09-10 12:42:47 51°19.94 3°8.022 24.3239 2.306811 15.986106 -0.791624
2010-09-10 12:43:46 51°19.966 3°8.062 24.3295 2.304917 15.970114 -0.7568
2010-09-10 12:44:47 51°19.995 3°8.111 24.334 2.306916 15.984712 -0.791624
2010-09-10 12:45:47 51°20.022 3°8.166 24.3379 2.305338 15.97166 -0.7568
2010-09-10 12:46:46 51°20.051 3°8.223 24.3336 2.30681 15.982545 -0.791624
2010-09-10 12:47:47 51°20.08 3°8.285 24.3405 2.307757 15.990815 -0.791624
2010-09-10 12:48:46 51°20.111 3°8.34 24.3468 2.305338 15.970566 -0.7568
2010-09-10 12:49:47 51°20.16 3°8.269 24.3523 2.307126 15.980283 -0.791624
2010-09-10 12:50:46 51°20.188 3°8.087 24.3517 2.304286 15.959043 -0.791624
2010-09-10 12:51:46 51°20.156 3°7.865 24.3552 2.303339 15.949141 -0.791624
2010-09-10 12:52:47 51°20.09 3°7.624 24.3625 2.304076 15.960456 -0.791624
2010-09-10 12:53:46 51°20.021 3°7.386 24.3723 2.307126 15.978915 -0.791624
2010-09-10 12:54:46 51°19.949 3°7.147 24.3824 2.308283 16.00879 -0.791624
2010-09-10 12:55:46 51°19.88 3°6.905 24.3693 2.309125 16.018196 -0.7568
2010-09-10 12:56:46 51°19.808 3°6.667 24.3656 2.307021 16.003058 -0.791624
2010-09-10 12:57:46 51°19.725 3°6.441 24.3585 2.308178 16.009914 -0.7568
2010-09-10 12:58:46 51°19.644 3°6.214 24.368 2.305864 16.005814 -0.7568
2010-09-10 12:59:46 51°19.563 3°5.987 24.3829 2.30334 15.978146 -0.7568
2010-09-10 13:00:46 51°19.483 3°5.759 24.3667 2.309861 16.038366 -0.791624
2010-09-10 13:01:46 51°19.404 3°5.532 24.378 2.306075 16.010436 -0.7568
2010-09-10 13:02:46 51°19.325 3°5.304 24.3862 2.30881 16.036713 -0.7568
2010-09-10 13:03:46 51°19.245 3°5.077 24.3904 2.308704 16.028478 -0.7568
2010-09-10 13:04:46 51°19.165 3°4.849 24.3803 2.310072 16.04713 -0.7568
2010-09-10 13:05:46 51°19.084 3°4.619 24.382 2.308599 16.013656 -0.7568
2010-09-10 13:06:46 51°19.004 3°4.389 24.3853 2.307653 16.044742 -0.7568
2010-09-10 13:07:46 51°18.922 3°4.155 24.3983 2.308599 16.018327 -0.7568
2010-09-10 13:08:46 51°18.841 3°3.921 24.4054 2.305654 16.021551 -0.7568
2010-09-10 13:09:46 51°18.773 3°3.674 24.4033 2.311965 16.068143 -0.791624
2010-09-10 13:10:46 51°18.725 3°3.41 24.3989 2.306601 16.030124 -0.791624
2010-09-10 13:11:46 51°18.678 3°3.147 24.4057 2.304497 16.00918 -0.791624
2010-09-10 13:12:47 51°18.627 3°2.881 24.4163 2.305444 16.008118 -0.7568
2010-09-10 13:13:46 51°18.579 3°2.618 24.403 2.310177 16.052067 -0.7568
2010-09-10 13:14:47 51°18.524 3°2.346 24.4128 2.308705 16.050256 -0.7568
2010-09-10 13:15:46 51°18.471 3°2.076 24.4112 2.306601 16.025715 -0.7568
2010-09-10 13:16:47 51°18.417 3°1.798 24.4231 2.306601 16.031227 -0.791624
2010-09-10 13:17:46 51°18.364 3°1.531 24.4097 2.306601 16.025164 -0.826448
2010-09-10 13:18:47 51°18.309 3°1.254 24.4102 2.311755 16.05771 -0.826448
2010-09-10 13:19:46 51°18.307 3°1.013 24.4255 2.309126 16.062021 -0.7568
2010-09-10 13:20:46 51°18.329 3°0.774 24.4207 2.306286 16.047321 -0.7568
2010-09-10 13:21:46 51°18.35 3°0.536 24.427 2.305339 16.027421 -0.791624
2010-09-10 13:22:46 51°18.371 3°0.295 24.4295 2.305339 16.028524 -0.791624
2010-09-10 13:23:47 51°18.393 3°0.051 24.4268 2.305129 16.029406 -0.7568
2010-09-10 13:24:46 51°18.414 2°59.813 24.4301 2.303761 16.014046 -0.791624
2010-09-10 13:25:47 51°18.42 2°59.572 24.4445 2.306496 16.03484 -0.791624
2010-09-10 13:26:46 51°18.408 2°59.343 24.4454 2.304708 16.011328 -0.791624
2010-09-10 13:27:46 51°18.372 2°59.126 24.4425 2.30292 16.00407 -0.791624
2010-09-10 13:28:47 51°18.324 2°58.915 24.4436 2.307443 16.036521 -0.7568
2010-09-10 13:29:46 51°18.268 2°58.714 24.4501 2.305339 16.021357 -0.791624
2010-09-10 13:30:47 51°18.209 2°58.498 24.4537 2.303866 16.003559 -0.791624
2010-09-10 13:31:46 51°18.149 2°58.297 24.4616 2.307547 16.021068 -0.7568
2010-09-10 13:32:46 51°18.087 2°58.097 24.4592 2.305865 16.013514 -0.791624
2010-09-10 13:33:46 51°18.027 2°57.898 24.4615 2.307653 16.03619 -0.721976
2010-09-10 13:34:46 51°17.965 2°57.7 24.4648 2.307653 16.024894 -0.791624
2010-09-10 13:35:46 51°17.904 2°57.499 24.4759 2.310282 16.055626 -0.7568
2010-09-10 13:36:46 51°17.832 2°57.307 24.4839 2.310388 16.050355 -0.791624
2010-09-10 13:37:46 51°17.756 2°57.12 24.4702 2.309441 16.02994 -0.7568
2010-09-10 13:38:46 51°17.676 2°56.936 24.481 2.305549 16.01552 -0.791624
2010-09-10 13:39:47 51°17.598 2°56.75 24.5007 2.308389 16.035721 -0.7568
2010-09-10 13:40:46 51°17.522 2°56.572 24.4977 2.309336 16.043465 -0.791624
2010-09-10 13:41:47 51°17.435 2°56.398 24.4986 2.306811 16.022907 -0.791624
2010-09-10 13:42:46 51°17.344 2°56.236 24.4937 2.307337 16.007924 -0.7568
2010-09-10 13:43:46 51°17.245 2°56.078 24.516 2.308599 16.036768 -0.791624
2010-09-10 13:44:46 51°17.142 2°55.933 24.5201 2.313227 16.054833 -0.791624
2010-09-10 13:45:46 51°17.037 2°55.789 24.5166 2.311335 16.078827 -0.791624
2010-09-10 13:46:47 51°16.918 2°55.654 24.5128 2.311965 16.042497 -0.7568
2010-09-10 13:47:46 51°16.78 2°55.562 24.531 2.312807 16.060184 -0.7568
2010-09-10 13:48:46 51°16.627 2°55.49 24.5186 2.30902 16.034729 -0.791624
2010-09-10 13:49:46 51°16.475 2°55.414 24.5344 2.314595 16.082052 -0.7568
2010-09-10 13:50:46 51°16.317 2°55.347 24.5282 2.313017 16.063989 -0.791624
2010-09-10 13:51:46 51°16.154 2°55.284 24.5269 2.313228 16.069451 -0.791624
2010-09-10 13:52:46 51°15.993 2°55.22 24.5352 2.315226 16.086296 -0.7568
2010-09-10 13:53:46 51°15.835 2°55.159 24.5489 2.31491 16.071747 -0.791624
2010-09-10 13:54:46 51°15.677 2°55.089 24.5429 2.314805 16.065984 -0.791624
2010-09-10 13:55:46 51°15.511 2°55.014 24.5543 2.312175 16.045195 -0.791624
2010-09-10 13:56:46 51°15.34 2°54.947 24.5517 2.310598 16.048368 -0.791624
2010-09-10 13:57:47 51°15.162 2°54.919 24.7341 2.314174 16.065053 -0.791624
2010-09-10 13:58:46 51°14.99 2°54.938 20.488 2.391283 16.648277 -0.721976
2010-09-10 13:59:47 51°14.81 2°54.967 22.2835 2.379605 16.572961 -0.7568
2010-09-10 14:00:46 51°14.634 2°55.022 22.304 2.385391 16.623075 -0.7568
2010-09-10 14:01:46 51°14.459 2°55.113 21.9984 2.351517 16.36377 -0.721976
2010-09-10 14:02:46 51°14.29 2°55.269 22.2545 2.382025 16.592548 -0.7568
2010-09-10 14:03:46 51°14.152 2°55.389 21.997 2.399384 16.722661 -0.721976
2010-09-10 14:04:46 51°14.046 2°55.467 22.0237 2.387811 16.632956 -0.721976
2010-09-10 14:05:46 51°13.945 2°55.543 22.1409 2.38981 16.645911 -0.721976
2010-09-10 14:06:46 51°13.829 2°55.631 22.2129 2.380341 16.569465 -0.7568
2010-09-10 14:07:46 51°13.754 2°55.733 22.2698 2.389179 16.633384 -0.7568
2010-09-10 14:08:46 51°13.701 2°55.838 22.2116 2.384549 16.594692 -0.721976
2010-09-10 14:09:46 51°13.666 2°55.94 22.2917 2.371504 16.492804 -0.7568